createdAt,value
2019-03-18T00:00:25.703Z,92.60
2019-03-18T00:02:54.520Z,92.60
2019-03-18T00:05:22.973Z,92.40
2019-03-18T00:07:51.445Z,92.70
2019-03-18T00:10:21.350Z,93.00
2019-03-18T00:12:52.117Z,93.50
2019-03-18T00:15:20.737Z,94.40
2019-03-18T00:17:49.275Z,94.90
2019-03-18T00:20:17.723Z,94.70
2019-03-18T00:22:46.503Z,95.30
2019-03-18T00:25:15.895Z,95.10
2019-03-18T00:27:44.374Z,95.10
2019-03-18T00:30:14.990Z,95.00
2019-03-18T00:32:43.464Z,94.80
2019-03-18T00:35:12.178Z,94.00
2019-03-18T00:37:40.655Z,92.90
2019-03-18T00:40:12.325Z,92.30
2019-03-18T00:42:40.847Z,92.60
2019-03-18T00:45:14.681Z,92.10
2019-03-18T00:47:39.935Z,92.40
2019-03-18T00:50:11.511Z,91.90
2019-03-18T00:52:39.987Z,94.00
2019-03-18T00:55:09.471Z,94.30
2019-03-18T00:57:38.016Z,94.30
2019-03-18T01:00:17.731Z,94.90
2019-03-18T01:02:49.110Z,94.70
2019-03-18T01:05:16.536Z,94.00
2019-03-18T01:08:04.417Z,94.00
2019-03-18T01:10:33.167Z,94.70
2019-03-18T01:13:01.963Z,94.10
2019-03-18T01:15:30.747Z,94.00
2019-03-18T01:18:00.318Z,91.50
2019-03-18T01:20:28.765Z,90.40
2019-03-18T01:22:57.305Z,90.90
2019-03-18T01:25:25.752Z,89.80
2019-03-18T01:27:54.509Z,89.50
2019-03-18T01:30:23.057Z,89.50
2019-03-18T01:32:51.594Z,87.00
2019-03-18T01:35:20.056Z,86.30
2019-03-18T01:37:48.865Z,86.20
2019-03-18T01:40:17.354Z,86.50
2019-03-18T01:42:46.244Z,88.70
2019-03-18T01:45:15.150Z,90.20
2019-03-18T01:47:43.600Z,89.20
2019-03-18T01:50:16.535Z,90.00
2019-03-18T01:52:45.512Z,90.40
2019-03-18T01:55:14.407Z,91.00
2019-03-18T01:57:42.853Z,91.00
2019-03-18T02:00:17.519Z,90.90
2019-03-18T02:02:46.304Z,90.80
2019-03-18T02:05:14.851Z,90.80
2019-03-18T02:07:44.715Z,91.20
2019-03-18T02:10:15.651Z,90.30
2019-03-18T02:12:44.446Z,88.90
2019-03-18T02:15:14.171Z,87.30
2019-03-18T02:17:43.053Z,85.80
2019-03-18T02:20:19.351Z,86.10
2019-03-18T02:22:46.879Z,87.20
2019-03-18T02:25:15.680Z,87.60
2019-03-18T02:27:45.696Z,87.40
2019-03-18T02:30:18.272Z,87.00
2019-03-18T02:32:47.016Z,88.10
2019-03-18T02:35:15.766Z,88.00
2019-03-18T02:37:46.191Z,87.10
2019-03-18T02:40:14.984Z,87.30
2019-03-18T02:42:43.777Z,87.40
2019-03-18T02:45:12.492Z,86.80
2019-03-18T02:47:41.567Z,86.10
2019-03-18T02:50:11.484Z,86.20
2019-03-18T02:52:40.385Z,86.10
2019-03-18T02:55:09.689Z,86.20
2019-03-18T02:57:38.203Z,86.20
2019-03-18T03:00:11.952Z,86.60
2019-03-18T03:02:40.572Z,86.10
2019-03-18T03:05:11.280Z,86.90
2019-03-18T03:07:40.934Z,87.40
2019-03-18T03:10:11.219Z,88.40
2019-03-18T03:12:40.036Z,87.80
2019-03-18T03:15:10.866Z,87.90
2019-03-18T03:17:39.700Z,88.30
2019-03-18T03:20:10.434Z,88.70
2019-03-18T03:22:39.020Z,88.50
2019-03-18T03:25:09.362Z,88.60
2019-03-18T03:27:38.247Z,88.50
2019-03-18T03:30:10.273Z,88.50
2019-03-18T03:32:38.823Z,88.40
2019-03-18T03:35:07.999Z,88.50
2019-03-18T03:37:36.486Z,88.00
2019-03-18T03:40:07.797Z,88.40
2019-03-18T03:42:36.299Z,88.90
2019-03-18T03:45:07.167Z,90.00
2019-03-18T03:47:35.928Z,90.20
2019-03-18T03:50:06.859Z,90.20
2019-03-18T03:52:35.307Z,90.70
2019-03-18T03:55:05.172Z,90.70
2019-03-18T03:57:33.962Z,91.40
2019-03-18T04:00:03.600Z,90.70
2019-03-18T04:02:32.360Z,90.90
2019-03-18T04:05:00.848Z,90.80
2019-03-18T04:07:29.364Z,91.00
2019-03-18T04:09:57.846Z,90.90
2019-03-18T04:12:26.712Z,91.00
2019-03-18T04:14:55.181Z,90.90
2019-03-18T04:17:23.640Z,90.90
2019-03-18T04:19:52.479Z,90.90
2019-03-18T04:22:21.279Z,90.70
2019-03-18T04:24:50.164Z,90.80
2019-03-18T04:27:18.683Z,90.70
2019-03-18T04:29:47.231Z,91.00
2019-03-18T04:32:16.035Z,90.80
2019-03-18T04:34:44.824Z,90.90
2019-03-18T04:37:13.624Z,91.10
2019-03-18T04:39:42.144Z,91.30
2019-03-18T04:42:10.618Z,91.10
2019-03-18T04:44:39.383Z,91.00
2019-03-18T04:47:14.129Z,90.70
2019-03-18T04:49:38.714Z,90.80
2019-03-18T04:52:07.179Z,91.00
2019-03-18T04:54:35.987Z,90.60
2019-03-18T04:57:04.780Z,90.50
2019-03-18T04:59:33.578Z,90.40
2019-03-18T05:02:02.043Z,90.40
2019-03-18T05:04:30.581Z,89.80
2019-03-18T05:06:59.335Z,90.20
2019-03-18T05:09:27.796Z,90.50
2019-03-18T05:11:56.269Z,90.50
2019-03-18T05:14:25.107Z,90.50
2019-03-18T05:16:54.003Z,90.80
2019-03-18T05:19:22.523Z,91.00
2019-03-18T05:21:51.003Z,90.90
2019-03-18T05:24:19.863Z,91.10
2019-03-18T05:26:48.345Z,91.20
2019-03-18T05:29:17.143Z,91.30
2019-03-18T05:31:45.936Z,91.10
2019-03-18T05:34:14.729Z,91.20
2019-03-18T05:36:43.199Z,90.70
2019-03-18T05:39:11.647Z,90.80
2019-03-18T05:41:40.391Z,91.00
2019-03-18T05:44:08.914Z,90.90
2019-03-18T05:46:37.772Z,90.90
2019-03-18T05:49:06.563Z,91.10
2019-03-18T05:51:35.360Z,91.40
2019-03-18T05:54:04.148Z,91.00
2019-03-18T05:56:32.956Z,91.00
2019-03-18T05:59:01.835Z,90.90
2019-03-18T06:01:30.310Z,90.60
2019-03-18T06:03:59.115Z,90.30
2019-03-18T06:06:27.583Z,89.60
2019-03-18T06:08:56.406Z,89.40
2019-03-18T06:11:24.942Z,89.80
2019-03-18T06:13:56.307Z,90.20
2019-03-18T06:16:23.892Z,90.00
2019-03-18T06:18:52.415Z,89.90
2019-03-18T06:21:20.895Z,89.30
2019-03-18T06:23:49.660Z,89.50
2019-03-18T06:26:18.146Z,90.40
2019-03-18T06:28:46.939Z,91.40
2019-03-18T06:31:15.796Z,91.10
2019-03-18T06:33:44.370Z,91.00
2019-03-18T06:36:13.114Z,91.00
2019-03-18T06:38:41.563Z,91.20
2019-03-18T06:41:10.115Z,91.50
2019-03-18T06:43:38.655Z,91.70
2019-03-18T06:46:07.467Z,91.10
2019-03-18T06:48:36.202Z,91.00
2019-03-18T06:51:05.053Z,86.50
2019-03-18T06:53:33.847Z,77.00
2019-03-18T06:56:02.631Z,69.90
2019-03-18T06:58:31.110Z,61.80
2019-03-18T07:00:59.914Z,60.10
2019-03-18T07:03:28.703Z,64.10
2019-03-18T07:05:57.155Z,71.50
2019-03-18T07:08:25.988Z,78.20
2019-03-18T07:10:54.883Z,82.60
2019-03-18T07:13:23.676Z,75.20
2019-03-18T07:15:52.128Z,75.50
2019-03-18T07:18:20.602Z,75.70
2019-03-18T07:20:49.332Z,79.20
2019-03-18T07:23:17.809Z,81.20
2019-03-18T07:25:46.388Z,83.10
2019-03-18T07:28:14.883Z,82.60
2019-03-18T07:30:43.330Z,83.80
2019-03-18T07:33:11.804Z,85.60
2019-03-18T07:35:40.256Z,85.20
2019-03-18T07:38:09.043Z,87.20
2019-03-18T07:40:37.831Z,83.30
2019-03-18T07:43:06.302Z,83.90
2019-03-18T07:45:34.751Z,87.50
2019-03-18T07:48:03.503Z,83.50
2019-03-18T07:50:32.018Z,82.90
2019-03-18T07:53:00.540Z,83.00
2019-03-18T07:55:29.369Z,80.10
2019-03-18T07:57:58.268Z,81.70
2019-03-18T08:00:27.159Z,81.50
2019-03-18T08:02:56.054Z,83.30
2019-03-18T08:05:24.499Z,80.60
2019-03-18T08:07:52.971Z,80.40
2019-03-18T08:10:21.816Z,80.70
2019-03-18T08:12:50.295Z,79.50
2019-03-18T08:15:19.096Z,79.70
2019-03-18T08:17:47.884Z,78.50
2019-03-18T08:20:16.679Z,78.80
2019-03-18T08:22:45.472Z,78.50
2019-03-18T08:25:14.096Z,76.70
2019-03-18T08:27:42.647Z,75.70
2019-03-18T08:30:16.291Z,77.50
2019-03-18T08:32:44.794Z,78.00
2019-03-18T08:35:13.527Z,75.90
2019-03-18T08:37:41.995Z,77.80
2019-03-18T08:40:11.848Z,76.40
2019-03-18T08:42:40.730Z,78.30
2019-03-18T08:45:13.407Z,79.50
2019-03-18T08:47:42.305Z,80.80
2019-03-18T08:50:13.035Z,81.10
2019-03-18T08:52:41.739Z,81.00
2019-03-18T08:55:11.548Z,82.50
2019-03-18T08:57:40.344Z,83.10
2019-03-18T09:00:11.726Z,84.10
2019-03-18T09:02:40.484Z,84.10
2019-03-18T09:05:10.215Z,84.20
2019-03-18T09:07:38.738Z,84.20
2019-03-18T09:10:12.419Z,83.10
2019-03-18T09:12:41.159Z,83.10
2019-03-18T09:15:10.942Z,83.10
2019-03-18T09:17:39.410Z,83.20
2019-03-18T09:20:10.833Z,84.00
2019-03-18T09:22:39.619Z,84.90
2019-03-18T09:25:10.262Z,85.80
2019-03-18T09:27:38.726Z,86.70
2019-03-18T09:30:15.804Z,85.00
2019-03-18T09:32:45.414Z,87.10
2019-03-18T09:35:13.923Z,87.70
2019-03-18T09:37:42.719Z,87.40
2019-03-18T09:40:15.535Z,86.90
2019-03-18T09:42:44.391Z,88.00
2019-03-18T09:45:14.973Z,89.60
2019-03-18T09:47:43.723Z,88.80
2019-03-18T09:50:12.799Z,89.30
2019-03-18T09:52:41.615Z,88.00
2019-03-18T09:55:10.685Z,86.70
2019-03-18T09:57:39.403Z,85.80
2019-03-18T10:00:15.622Z,85.60
2019-03-18T10:02:44.071Z,86.00
2019-03-18T10:05:12.779Z,87.30
2019-03-18T10:07:41.531Z,86.50
2019-03-18T10:10:12.784Z,88.30
2019-03-18T10:12:41.231Z,87.10
2019-03-18T10:15:18.391Z,88.20
2019-03-18T10:17:46.844Z,89.80
2019-03-18T10:20:15.387Z,89.80
2019-03-18T10:22:43.937Z,89.70
2019-03-18T10:25:12.723Z,90.60
2019-03-18T10:27:41.501Z,89.40
2019-03-18T10:30:12.449Z,87.70
2019-03-18T10:32:41.231Z,88.60
2019-03-18T10:35:10.897Z,88.80
2019-03-18T10:37:39.634Z,88.10
2019-03-18T10:40:13.443Z,82.00
2019-03-18T10:42:41.895Z,82.10
2019-03-18T10:45:12.277Z,81.90
2019-03-18T10:47:40.879Z,78.40
2019-03-18T10:50:12.124Z,76.90
2019-03-18T10:52:40.891Z,78.50
2019-03-18T10:55:10.186Z,77.60
2019-03-18T10:57:38.987Z,76.80
2019-03-18T11:00:17.547Z,74.80
2019-03-18T11:02:46.283Z,75.60
2019-03-18T11:05:15.595Z,77.00
2019-03-18T11:07:44.140Z,77.10
2019-03-18T11:10:14.095Z,79.20
2019-03-18T11:12:42.751Z,76.40
2019-03-18T11:15:16.683Z,76.70
2019-03-18T11:17:45.166Z,76.10
2019-03-18T11:20:17.362Z,75.00
2019-03-18T11:22:45.905Z,71.40
2019-03-18T11:25:15.188Z,69.40
2019-03-18T11:27:43.660Z,72.80
2019-03-18T11:30:16.830Z,74.10
2019-03-18T11:32:45.456Z,71.30
2019-03-18T11:35:14.063Z,70.10
2019-03-18T11:37:42.780Z,70.70
2019-03-18T11:40:16.601Z,70.20
2019-03-18T11:42:45.087Z,68.50
2019-03-18T11:45:15.083Z,69.80
2019-03-18T11:47:43.695Z,70.90
2019-03-18T11:50:31.828Z,72.60
2019-03-18T11:53:00.928Z,71.00
2019-03-18T11:55:29.454Z,72.50
2019-03-18T11:57:57.998Z,74.70
2019-03-18T12:00:27.152Z,71.60
2019-03-18T12:02:55.622Z,74.20
2019-03-18T12:05:28.918Z,79.40
2019-03-18T12:07:57.470Z,80.40
2019-03-18T12:10:26.328Z,73.80
2019-03-18T12:12:54.922Z,69.60
2019-03-18T12:15:25.683Z,64.20
2019-03-18T12:17:54.361Z,62.00
2019-03-18T12:20:25.240Z,62.10
2019-03-18T12:22:53.672Z,61.30
2019-03-18T12:25:22.504Z,66.50
2019-03-18T12:27:51.053Z,64.00
2019-03-18T12:30:24.587Z,57.70
2019-03-18T12:32:53.061Z,64.50
2019-03-18T12:35:21.507Z,65.80
2019-03-18T12:37:49.979Z,61.80
2019-03-18T12:40:18.940Z,56.20
2019-03-18T12:42:47.580Z,57.10
2019-03-18T12:45:16.969Z,57.90
2019-03-18T12:47:45.608Z,57.70
2019-03-18T12:50:43.185Z,58.50
2019-03-18T12:52:54.402Z,59.20
2019-03-18T12:55:23.155Z,55.50
2019-03-18T12:57:51.965Z,55.30
2019-03-18T13:00:32.180Z,57.50
2019-03-18T13:03:00.820Z,57.60
2019-03-18T13:05:29.589Z,58.50
2019-03-18T13:07:58.062Z,56.60
2019-03-18T13:10:27.887Z,56.10
2019-03-18T13:12:56.682Z,58.20
2019-03-18T13:15:25.271Z,57.90
2019-03-18T13:17:53.746Z,60.30
2019-03-18T13:20:23.359Z,61.40
2019-03-18T13:22:53.903Z,60.20
2019-03-18T13:25:22.394Z,61.30
2019-03-18T13:27:51.013Z,67.40
2019-03-18T13:30:20.630Z,66.30
2019-03-18T13:32:49.384Z,66.90
2019-03-18T13:35:18.188Z,65.00
2019-03-18T13:37:46.805Z,66.60
2019-03-18T13:40:16.441Z,67.50
2019-03-18T13:42:45.468Z,72.70
2019-03-18T13:45:21.850Z,72.60
2019-03-18T13:47:50.328Z,74.50
2019-03-18T13:50:22.183Z,73.60
2019-03-18T13:52:50.656Z,72.40
2019-03-18T13:55:19.563Z,74.30
2019-03-18T13:57:48.459Z,74.20
2019-03-18T14:00:17.543Z,65.40
2019-03-18T14:02:46.024Z,64.60
2019-03-18T14:05:14.830Z,63.70
2019-03-18T14:07:43.727Z,59.60
2019-03-18T14:10:18.160Z,56.70
2019-03-18T14:12:46.971Z,55.80
2019-03-18T14:15:17.120Z,53.00
2019-03-18T14:17:45.606Z,52.30
2019-03-18T14:20:16.950Z,49.80
2019-03-18T14:22:45.699Z,49.70
2019-03-18T14:25:14.591Z,49.60
2019-03-18T14:27:43.510Z,52.90
2019-03-18T14:30:16.559Z,49.70
2019-03-18T14:32:45.371Z,50.70
2019-03-18T14:35:14.475Z,54.10
2019-03-18T14:37:43.373Z,55.40
2019-03-18T14:40:17.107Z,58.20
2019-03-18T14:42:45.867Z,57.60
2019-03-18T14:45:16.813Z,57.40
2019-03-18T14:47:45.260Z,57.40
2019-03-18T14:50:16.967Z,58.00
2019-03-18T14:52:46.053Z,58.80
2019-03-18T14:55:15.663Z,59.30
2019-03-18T14:57:44.111Z,59.70
2019-03-18T15:00:20.837Z,58.90
2019-03-18T15:02:49.683Z,60.80
2019-03-18T15:05:18.507Z,62.70
2019-03-18T15:07:47.301Z,65.20
2019-03-18T15:10:18.074Z,71.80
2019-03-18T15:12:46.523Z,77.00
2019-03-18T15:15:18.899Z,87.50
2019-03-18T15:17:47.999Z,90.10
2019-03-18T15:20:20.471Z,90.50
2019-03-18T15:22:49.276Z,90.40
2019-03-18T15:25:34.687Z,90.60
2019-03-18T15:28:03.435Z,90.40
2019-03-18T15:30:33.555Z,88.30
2019-03-18T15:33:02.352Z,84.20
2019-03-18T15:35:30.895Z,71.30
2019-03-18T15:37:59.343Z,70.70
2019-03-18T15:40:28.460Z,63.60
2019-03-18T15:42:57.046Z,63.80
2019-03-18T15:45:25.903Z,64.80
2019-03-18T15:47:54.791Z,60.80
2019-03-18T15:50:27.009Z,59.90
2019-03-18T15:52:55.529Z,63.30
2019-03-18T15:55:24.617Z,60.70
2019-03-18T15:57:54.171Z,61.90
2019-03-18T16:00:24.295Z,60.10
2019-03-18T16:02:52.752Z,58.30
2019-03-18T16:05:21.668Z,64.70
2019-03-18T16:07:50.115Z,63.70
2019-03-18T16:10:19.863Z,65.10
2019-03-18T16:12:48.864Z,64.60
2019-03-18T16:15:20.428Z,65.30
2019-03-18T16:17:49.624Z,67.80
2019-03-18T16:20:23.964Z,69.40
2019-03-18T16:22:52.483Z,71.00
2019-03-18T16:25:21.023Z,76.20
2019-03-18T16:27:49.812Z,72.00
2019-03-18T16:30:20.129Z,71.80
2019-03-18T16:32:48.595Z,74.00
2019-03-18T16:35:17.759Z,74.80
2019-03-18T16:37:46.215Z,75.90
2019-03-18T16:40:20.663Z,78.40
2019-03-18T16:42:49.251Z,80.30
2019-03-18T16:45:18.464Z,75.60
2019-03-18T16:47:47.225Z,74.00
2019-03-18T16:50:22.055Z,70.60
2019-03-18T16:52:50.580Z,72.50
2019-03-18T16:55:19.115Z,74.20
2019-03-18T16:57:47.563Z,78.90
2019-03-18T17:00:21.987Z,81.80
2019-03-18T17:02:50.438Z,84.20
2019-03-18T17:05:19.507Z,83.90
2019-03-18T17:07:47.955Z,87.90
2019-03-18T17:10:17.971Z,89.40
2019-03-18T17:12:46.497Z,90.40
2019-03-18T17:15:18.041Z,91.00
2019-03-18T17:17:46.486Z,91.10
2019-03-18T17:20:15.774Z,91.60
2019-03-18T17:22:49.468Z,92.20
2019-03-18T17:25:22.794Z,92.50
2019-03-18T17:27:51.636Z,93.00
2019-03-18T17:30:21.421Z,93.50
2019-03-18T17:32:49.963Z,93.90
2019-03-18T17:35:18.831Z,94.10
2019-03-18T17:37:47.618Z,94.50
2019-03-18T17:40:20.722Z,95.60
2019-03-18T17:42:49.273Z,94.80
2019-03-18T17:45:20.755Z,95.30
2019-03-18T17:47:49.544Z,95.30
2019-03-18T17:50:28.480Z,95.40
2019-03-18T17:53:02.899Z,96.00
2019-03-18T17:55:27.489Z,96.40
2019-03-18T17:57:56.286Z,96.30
2019-03-18T18:00:32.496Z,96.00
2019-03-18T18:03:01.270Z,96.60
2019-03-18T18:05:29.731Z,96.40
2019-03-18T18:07:58.618Z,96.20
2019-03-18T18:10:28.367Z,96.10
2019-03-18T18:12:56.839Z,96.90
2019-03-18T18:15:25.297Z,97.10
2019-03-18T18:17:53.848Z,96.90
2019-03-18T18:20:22.688Z,97.10
2019-03-18T18:22:51.248Z,97.50
2019-03-18T18:25:19.700Z,97.70
2019-03-18T18:27:48.351Z,98.50
2019-03-18T18:30:17.913Z,98.50
2019-03-18T18:32:46.755Z,98.50
2019-03-18T18:35:15.544Z,98.40
2019-03-18T18:37:44.096Z,98.30
2019-03-18T18:40:23.458Z,98.60
2019-03-18T18:42:51.927Z,98.80
2019-03-18T18:45:21.357Z,99.00
2019-03-18T18:47:50.094Z,98.70
2019-03-18T18:50:20.185Z,98.90
2019-03-18T18:52:48.668Z,98.80
2019-03-18T18:55:17.447Z,98.50
2019-03-18T18:57:46.235Z,97.90
2019-03-18T19:00:21.272Z,97.40
2019-03-18T19:02:50.172Z,96.90
2019-03-18T19:05:18.973Z,96.90
2019-03-18T19:07:47.983Z,97.20
2019-03-18T19:10:19.619Z,97.40
2019-03-18T19:12:48.418Z,97.50
2019-03-18T19:15:21.799Z,97.50
2019-03-18T19:17:50.269Z,97.70
2019-03-18T19:20:20.516Z,97.90
2019-03-18T19:22:48.994Z,97.80
2019-03-18T19:25:18.330Z,97.50
2019-03-18T19:27:47.206Z,97.70
2019-03-18T19:30:20.232Z,97.80
2019-03-18T19:32:48.783Z,98.10
2019-03-18T19:35:17.402Z,98.10
2019-03-18T19:37:45.879Z,98.20
2019-03-18T19:40:20.589Z,97.90
2019-03-18T19:42:49.151Z,98.10
2019-03-18T19:45:17.595Z,98.30
2019-03-18T19:47:46.147Z,98.40
2019-03-18T19:50:27.735Z,98.40
2019-03-18T19:52:56.234Z,98.30
2019-03-18T19:55:24.730Z,99.10
2019-03-18T19:57:53.204Z,99.00
2019-03-18T20:00:24.567Z,99.10
2019-03-18T20:02:53.859Z,98.80
2019-03-18T20:05:22.379Z,98.80
2019-03-18T20:07:50.832Z,98.50
2019-03-18T20:10:20.676Z,98.20
2019-03-18T20:12:49.227Z,98.70
2019-03-18T20:15:18.944Z,98.90
2019-03-18T20:17:47.829Z,99.00
2019-03-18T20:20:20.530Z,98.60
2019-03-18T20:22:49.040Z,99.20
2019-03-18T20:25:17.791Z,99.30
2019-03-18T20:27:46.243Z,98.90
2019-03-18T20:30:22.504Z,98.90
2019-03-18T20:32:51.436Z,99.80
2019-03-18T20:35:21.193Z,99.90
2019-03-18T20:37:51.961Z,99.70
2019-03-18T20:40:21.532Z,99.50
2019-03-18T20:42:49.994Z,99.90
2019-03-18T20:45:23.795Z,99.90
2019-03-18T20:47:52.321Z,99.90
2019-03-18T20:50:24.955Z,99.90
2019-03-18T20:52:53.818Z,99.90
2019-03-18T20:55:22.943Z,99.90
2019-03-18T20:57:51.406Z,99.90
2019-03-18T21:00:20.919Z,99.90
2019-03-18T21:02:49.736Z,99.90
2019-03-18T21:05:18.528Z,99.90
2019-03-18T21:07:47.321Z,99.90
2019-03-18T21:10:23.256Z,99.90
2019-03-18T21:12:51.783Z,99.90
2019-03-18T21:15:20.559Z,99.90
2019-03-18T21:17:49.083Z,99.90
2019-03-18T21:20:21.652Z,99.90
2019-03-18T21:22:50.411Z,99.90
2019-03-18T21:25:18.887Z,99.90
2019-03-18T21:27:47.330Z,99.90
2019-03-18T21:30:20.790Z,99.90
2019-03-18T21:32:49.393Z,99.90
2019-03-18T21:35:17.966Z,99.90
2019-03-18T21:37:46.749Z,99.90
2019-03-18T21:40:20.251Z,99.80
2019-03-18T21:42:48.708Z,99.70
2019-03-18T21:45:18.759Z,99.80
2019-03-18T21:47:47.217Z,99.90
2019-03-18T21:50:17.643Z,99.90
2019-03-18T21:52:46.167Z,99.90
2019-03-18T21:55:16.603Z,99.90
2019-03-18T21:57:45.483Z,99.80
2019-03-18T22:00:18.884Z,99.60
2019-03-18T22:02:47.398Z,99.80
2019-03-18T22:05:16.011Z,99.50
2019-03-18T22:07:44.735Z,99.70
2019-03-18T22:10:18.638Z,99.30
2019-03-18T22:12:47.632Z,99.50
2019-03-18T22:15:17.066Z,99.60
2019-03-18T22:17:45.652Z,99.10
2019-03-18T22:20:15.775Z,98.90
2019-03-18T22:22:44.325Z,99.20
2019-03-18T22:25:14.184Z,99.00
2019-03-18T22:27:43.070Z,98.90
2019-03-18T22:30:21.756Z,99.70
2019-03-18T22:32:50.214Z,99.60
2019-03-18T22:35:18.762Z,99.60
2019-03-18T22:37:47.211Z,99.20
2019-03-18T22:40:17.279Z,99.40
2019-03-18T22:42:46.062Z,99.70
2019-03-18T22:45:15.956Z,99.60
2019-03-18T22:47:44.775Z,99.70
2019-03-18T22:50:14.596Z,99.10
2019-03-18T22:52:43.047Z,99.40
2019-03-18T22:55:12.639Z,99.90
2019-03-18T22:57:41.379Z,99.90
2019-03-18T23:00:17.143Z,99.90
2019-03-18T23:02:46.028Z,99.90
2019-03-18T23:05:15.135Z,99.90
2019-03-18T23:07:43.588Z,99.90
2019-03-18T23:10:12.039Z,99.90
2019-03-18T23:12:40.787Z,99.90
2019-03-18T23:15:09.483Z,99.90
2019-03-18T23:17:38.856Z,99.90
2019-03-18T23:20:08.254Z,99.90
2019-03-18T23:22:36.867Z,99.90
2019-03-18T23:25:08.173Z,99.90
2019-03-18T23:27:36.923Z,99.90
2019-03-18T23:30:10.941Z,99.90
2019-03-18T23:32:39.819Z,99.90
2019-03-18T23:35:09.818Z,99.90
2019-03-18T23:37:40.384Z,99.90
2019-03-18T23:40:13.071Z,99.90
2019-03-18T23:42:41.550Z,99.90
2019-03-18T23:45:11.409Z,99.90
2019-03-18T23:47:42.597Z,99.90
2019-03-18T23:50:13.347Z,99.90
2019-03-18T23:52:42.086Z,99.90
2019-03-18T23:55:18.874Z,99.90
2019-03-18T23:57:43.311Z,99.90
